createdAt,value
2022-10-20T00:01:36.420Z,3.84
2022-10-20T00:04:03.138Z,3.82
2022-10-20T00:06:31.601Z,3.82
2022-10-20T00:09:00.019Z,3.82
2022-10-20T00:11:27.198Z,3.82
2022-10-20T00:13:54.529Z,3.79
2022-10-20T00:16:21.649Z,3.76
2022-10-20T00:18:48.602Z,3.75
2022-10-20T00:21:17.000Z,3.72
2022-10-20T00:23:43.952Z,3.69
2022-10-20T00:26:15.525Z,3.67
2022-10-20T00:28:42.640Z,3.65
2022-10-20T00:31:09.580Z,3.63
2022-10-20T00:33:36.400Z,3.60
2022-10-20T00:36:04.449Z,3.55
2022-10-20T00:38:31.415Z,3.50
2022-10-20T00:41:00.258Z,3.48
2022-10-20T00:43:44.208Z,3.46
2022-10-20T00:46:15.558Z,3.44
2022-10-20T00:48:42.847Z,3.40
2022-10-20T00:51:09.593Z,3.36
2022-10-20T00:53:36.369Z,3.35
2022-10-20T00:56:03.329Z,3.34
2022-10-20T00:58:30.223Z,3.33
2022-10-20T01:00:57.916Z,3.31
2022-10-20T01:03:28.175Z,3.30
2022-10-20T01:05:54.990Z,3.29
2022-10-20T01:08:21.648Z,3.29
2022-10-20T01:11:27.519Z,3.28
2022-10-20T01:14:13.133Z,3.27
2022-10-20T01:16:42.880Z,3.26
2022-10-20T01:19:57.080Z,3.28
2022-10-20T01:22:35.751Z,3.28
2022-10-20T01:25:17.552Z,3.30
2022-10-20T01:27:48.596Z,3.28
2022-10-20T01:30:21.023Z,3.27
2022-10-20T01:32:56.050Z,3.28
2022-10-20T01:35:25.505Z,3.28
2022-10-20T01:37:59.388Z,3.23
2022-10-20T01:40:27.895Z,3.19
2022-10-20T01:42:55.115Z,3.16
2022-10-20T01:45:21.953Z,3.15
2022-10-20T01:47:48.755Z,3.12
2022-10-20T01:50:15.563Z,3.09
2022-10-20T01:52:42.393Z,3.06
2022-10-20T01:55:13.122Z,3.02
2022-10-20T01:58:00.248Z,3.03
2022-10-20T02:00:27.022Z,3.05
2022-10-20T02:02:56.809Z,3.08
2022-10-20T02:05:33.315Z,3.10
2022-10-20T02:08:30.846Z,3.10
2022-10-20T02:10:59.351Z,3.10
2022-10-20T02:13:26.110Z,3.12
2022-10-20T02:15:54.295Z,3.13
2022-10-20T02:18:24.622Z,3.16
2022-10-20T02:20:52.197Z,3.18
2022-10-20T02:23:18.944Z,3.22
2022-10-20T02:25:46.809Z,3.24
2022-10-20T02:28:13.554Z,3.26
2022-10-20T02:30:40.324Z,3.29
2022-10-20T02:33:07.024Z,3.34
2022-10-20T02:35:34.853Z,3.37
2022-10-20T02:38:01.798Z,3.39
2022-10-20T02:40:28.588Z,3.38
2022-10-20T02:42:55.340Z,3.38
2022-10-20T02:45:22.116Z,3.37
2022-10-20T02:47:48.903Z,3.35
2022-10-20T02:50:17.221Z,3.34
2022-10-20T02:52:44.023Z,3.32
2022-10-20T02:55:10.831Z,3.29
2022-10-20T02:57:38.232Z,3.25
2022-10-20T03:00:06.824Z,3.23
2022-10-20T03:02:33.661Z,3.21
2022-10-20T03:05:00.344Z,3.18
2022-10-20T03:07:27.066Z,3.14
2022-10-20T03:09:53.809Z,3.13
2022-10-20T03:12:20.465Z,3.13
2022-10-20T03:14:47.200Z,3.16
2022-10-20T03:17:13.975Z,3.17
2022-10-20T03:19:41.449Z,3.18
2022-10-20T03:22:08.155Z,3.19
2022-10-20T03:24:34.896Z,3.21
2022-10-20T03:27:01.654Z,3.23
2022-10-20T03:29:28.395Z,3.25
2022-10-20T03:31:55.104Z,3.24
2022-10-20T03:34:21.906Z,3.23
2022-10-20T03:36:48.613Z,3.25
2022-10-20T03:39:15.398Z,3.27
2022-10-20T03:41:42.186Z,3.27
2022-10-20T03:44:10.584Z,3.23
2022-10-20T03:46:37.285Z,3.18
2022-10-20T03:49:04.308Z,3.17
2022-10-20T03:51:31.028Z,3.17
2022-10-20T03:53:57.727Z,3.16
2022-10-20T03:56:24.504Z,3.17
2022-10-20T03:58:51.276Z,3.17
2022-10-20T04:01:18.939Z,3.17
2022-10-20T04:03:45.893Z,3.13
2022-10-20T04:06:12.863Z,3.10
2022-10-20T04:08:39.912Z,3.08
2022-10-20T04:11:06.769Z,3.06
2022-10-20T04:13:33.545Z,3.06
2022-10-20T04:16:00.217Z,3.06
2022-10-20T04:18:26.970Z,3.07
2022-10-20T04:20:53.726Z,3.09
2022-10-20T04:23:20.630Z,3.07
2022-10-20T04:25:48.570Z,3.05
2022-10-20T04:28:16.275Z,3.03
2022-10-20T04:30:43.307Z,2.99
2022-10-20T04:33:10.420Z,2.98
2022-10-20T04:35:37.161Z,2.98
2022-10-20T04:38:04.072Z,2.95
2022-10-20T04:40:30.739Z,2.94
2022-10-20T04:42:59.980Z,2.95
2022-10-20T04:45:27.125Z,2.95
2022-10-20T04:47:54.174Z,2.97
2022-10-20T04:50:20.899Z,2.99
2022-10-20T04:53:06.601Z,3.00
2022-10-20T04:55:33.540Z,3.00
2022-10-20T04:58:00.299Z,3.01
2022-10-20T05:00:27.069Z,3.01
2022-10-20T05:02:54.901Z,3.01
2022-10-20T05:05:21.656Z,3.00
2022-10-20T05:07:48.375Z,3.00
2022-10-20T05:10:15.214Z,3.03
2022-10-20T05:12:41.875Z,3.04
2022-10-20T05:15:08.942Z,3.03
2022-10-20T05:17:35.662Z,3.02
2022-10-20T05:20:02.421Z,2.99
2022-10-20T05:22:30.540Z,2.97
2022-10-20T05:25:04.018Z,2.99
2022-10-20T05:27:39.822Z,3.01
2022-10-20T05:30:07.081Z,2.99
2022-10-20T05:32:34.199Z,3.00
2022-10-20T05:35:01.198Z,3.01
2022-10-20T05:37:27.987Z,2.99
2022-10-20T05:39:54.715Z,2.98
2022-10-20T05:42:21.346Z,2.97
2022-10-20T05:44:48.125Z,2.95
2022-10-20T05:47:14.860Z,2.97
2022-10-20T05:49:41.616Z,2.95
2022-10-20T05:52:08.308Z,2.95
2022-10-20T05:54:35.021Z,2.95
2022-10-20T05:57:01.765Z,2.93
2022-10-20T05:59:28.517Z,2.90
2022-10-20T06:01:55.254Z,2.88
2022-10-20T06:04:23.811Z,2.87
2022-10-20T06:06:51.656Z,2.81
2022-10-20T06:09:18.579Z,2.76
2022-10-20T06:11:45.215Z,2.74
2022-10-20T06:14:11.985Z,2.71
2022-10-20T06:16:38.995Z,2.66
2022-10-20T06:19:07.173Z,2.71
2022-10-20T06:21:34.405Z,2.74
2022-10-20T06:24:01.912Z,2.75
2022-10-20T06:26:36.715Z,2.78
2022-10-20T06:29:05.091Z,2.77
2022-10-20T06:31:34.357Z,2.75
2022-10-20T06:34:01.226Z,2.75
2022-10-20T06:36:27.935Z,2.77
2022-10-20T06:38:55.708Z,2.76
2022-10-20T06:41:22.563Z,2.74
2022-10-20T06:43:49.406Z,2.75
2022-10-20T06:46:17.635Z,2.79
2022-10-20T06:48:44.895Z,2.80
2022-10-20T06:51:13.273Z,2.82
2022-10-20T06:53:42.751Z,2.87
2022-10-20T06:56:14.500Z,2.90
2022-10-20T06:58:41.966Z,2.90
2022-10-20T07:01:14.728Z,2.91
2022-10-20T07:03:41.818Z,2.91
2022-10-20T07:06:08.819Z,2.90
2022-10-20T07:08:36.200Z,2.95
2022-10-20T07:11:07.666Z,2.95
2022-10-20T07:13:35.184Z,2.98
2022-10-20T07:16:02.033Z,2.99
2022-10-20T07:18:28.804Z,2.99
2022-10-20T07:20:59.718Z,2.94
2022-10-20T07:23:27.240Z,2.95
2022-10-20T07:26:03.647Z,2.93
2022-10-20T07:28:30.488Z,2.93
2022-10-20T07:30:57.235Z,2.95
2022-10-20T07:33:23.929Z,2.97
2022-10-20T07:35:50.556Z,2.99
2022-10-20T07:38:17.262Z,3.00
2022-10-20T07:40:43.954Z,2.99
2022-10-20T07:43:10.693Z,2.99
2022-10-20T07:45:37.364Z,2.97
2022-10-20T07:48:04.388Z,2.95
2022-10-20T07:50:31.065Z,2.91
2022-10-20T07:52:57.769Z,2.95
2022-10-20T07:55:38.295Z,2.98
2022-10-20T07:58:05.540Z,2.95
2022-10-20T08:00:32.391Z,2.98
2022-10-20T08:02:59.113Z,2.99
2022-10-20T08:05:26.771Z,2.99
2022-10-20T08:07:53.400Z,3.03
2022-10-20T08:10:20.071Z,3.04
2022-10-20T08:12:46.773Z,3.05
2022-10-20T08:15:14.578Z,3.05
2022-10-20T08:17:41.270Z,3.06
2022-10-20T08:22:51.310Z,3.08
2022-10-20T08:25:17.966Z,3.12
2022-10-20T08:27:44.676Z,3.17
2022-10-20T08:30:26.137Z,3.20
2022-10-20T08:32:53.104Z,3.24
2022-10-20T08:35:20.241Z,3.24
2022-10-20T08:37:47.079Z,3.27
2022-10-20T08:42:12.178Z,3.34
2022-10-20T08:44:40.033Z,3.31
2022-10-20T08:47:26.649Z,3.28
2022-10-20T08:49:56.129Z,3.31
2022-10-20T08:52:23.981Z,3.32
2022-10-20T08:54:52.829Z,3.31
2022-10-20T08:57:33.450Z,3.30
2022-10-20T09:00:22.532Z,3.33
2022-10-20T09:02:50.462Z,3.35
2022-10-20T09:05:26.079Z,3.41
2022-10-20T09:08:05.962Z,3.41
2022-10-20T09:10:40.327Z,3.39
2022-10-20T09:13:11.954Z,3.39
2022-10-20T09:15:38.727Z,3.42
2022-10-20T09:18:09.210Z,3.44
2022-10-20T09:21:07.083Z,3.46
2022-10-20T09:23:44.580Z,3.50
2022-10-20T09:26:24.757Z,3.56
2022-10-20T09:29:12.889Z,3.61
2022-10-20T09:31:52.105Z,3.66
2022-10-20T09:34:23.272Z,3.68
2022-10-20T09:36:51.523Z,3.70
2022-10-20T09:39:21.189Z,3.72
2022-10-20T09:41:48.317Z,3.71
2022-10-20T09:44:17.157Z,3.76
2022-10-20T09:46:48.778Z,3.77
2022-10-20T09:49:35.198Z,3.78
2022-10-20T09:52:02.297Z,3.81
2022-10-20T09:54:29.069Z,3.82
2022-10-20T09:57:04.590Z,3.84
2022-10-20T09:59:38.983Z,3.87
2022-10-20T10:02:15.002Z,3.91
2022-10-20T10:04:44.046Z,3.92
2022-10-20T10:07:26.173Z,3.91
2022-10-20T10:09:56.661Z,3.91
2022-10-20T10:12:24.157Z,3.92
2022-10-20T10:15:06.115Z,3.95
2022-10-20T10:17:33.968Z,3.98
2022-10-20T10:20:01.656Z,4.00
2022-10-20T10:22:28.438Z,3.96
2022-10-20T10:24:55.263Z,4.01
2022-10-20T10:27:23.567Z,4.03
2022-10-20T10:29:50.321Z,4.05
2022-10-20T10:32:27.288Z,4.09
2022-10-20T10:35:00.652Z,4.15
2022-10-20T10:37:30.891Z,4.21
2022-10-20T10:40:02.828Z,4.25
2022-10-20T10:42:35.934Z,4.30
2022-10-20T10:45:10.382Z,4.36
2022-10-20T10:48:08.312Z,4.41
2022-10-20T10:50:47.263Z,4.47
2022-10-20T10:53:32.809Z,4.51
2022-10-20T10:58:45.650Z,4.61
2022-10-20T11:01:43.430Z,4.68
2022-10-20T11:04:23.527Z,4.74
2022-10-20T11:06:58.315Z,4.77
2022-10-20T11:09:52.031Z,4.81
2022-10-20T11:12:33.622Z,4.88
2022-10-20T11:15:20.741Z,4.96
2022-10-20T11:18:28.523Z,5.07
2022-10-20T11:21:45.337Z,5.13
2022-10-20T11:24:30.206Z,5.15
2022-10-20T11:27:02.027Z,5.12
2022-10-20T11:29:32.989Z,5.11
2022-10-20T11:32:14.798Z,5.10
2022-10-20T11:34:50.813Z,5.08
2022-10-20T11:37:23.850Z,5.11
2022-10-20T11:40:11.711Z,5.12
2022-10-20T11:43:12.421Z,5.12
2022-10-20T11:45:52.549Z,5.12
2022-10-20T11:48:22.006Z,5.12
2022-10-20T11:50:52.182Z,5.14
2022-10-20T11:53:35.913Z,5.17
2022-10-20T11:56:24.090Z,5.17
2022-10-20T11:58:56.665Z,5.19
2022-10-20T12:01:30.401Z,5.19
2022-10-20T12:04:25.018Z,5.18
2022-10-20T12:07:10.596Z,5.20
2022-10-20T12:09:46.375Z,5.16
2022-10-20T12:12:19.982Z,5.10
2022-10-20T12:14:52.493Z,5.06
2022-10-20T12:17:35.824Z,5.06
2022-10-20T12:20:20.908Z,5.06
2022-10-20T12:22:52.065Z,5.05
2022-10-20T12:25:25.229Z,5.04
2022-10-20T12:28:19.913Z,5.03
2022-10-20T12:30:55.907Z,5.01
2022-10-20T12:33:54.244Z,5.02
2022-10-20T12:36:28.747Z,5.00
2022-10-20T12:39:16.064Z,4.96
2022-10-20T12:42:01.726Z,5.02
2022-10-20T12:44:31.317Z,5.02
2022-10-20T12:47:05.456Z,5.05
2022-10-20T12:49:39.326Z,5.09
2022-10-20T12:52:07.553Z,5.13
2022-10-20T12:54:37.930Z,5.17
2022-10-20T12:57:25.199Z,5.23
2022-10-20T12:59:51.968Z,5.27
2022-10-20T13:02:24.714Z,5.31
2022-10-20T13:05:06.945Z,5.33
2022-10-20T13:07:46.828Z,5.35
2022-10-20T13:10:32.478Z,5.37
2022-10-20T13:13:02.276Z,5.39
2022-10-20T13:15:36.323Z,5.41
2022-10-20T13:18:12.389Z,5.43
2022-10-20T13:20:42.104Z,5.44
2022-10-20T13:23:13.264Z,5.43
2022-10-20T13:25:43.461Z,5.42
2022-10-20T13:28:13.444Z,5.41
2022-10-20T13:30:52.566Z,5.41
2022-10-20T13:33:58.807Z,5.41
2022-10-20T13:36:52.222Z,5.42
2022-10-20T13:39:32.240Z,5.40
2022-10-20T13:42:01.982Z,5.41
2022-10-20T13:45:02.962Z,5.40
2022-10-20T13:47:34.312Z,5.41
2022-10-20T13:50:12.762Z,5.43
2022-10-20T13:52:42.000Z,5.45
2022-10-20T13:55:12.758Z,5.47
2022-10-20T13:57:46.890Z,5.48
2022-10-20T14:00:25.180Z,5.48
2022-10-20T14:02:54.068Z,5.49
2022-10-20T14:05:21.439Z,5.52
2022-10-20T14:07:49.380Z,5.52
2022-10-20T14:10:25.690Z,5.53
2022-10-20T14:12:53.054Z,5.53
2022-10-20T14:15:53.737Z,5.53
2022-10-20T14:18:32.305Z,5.52
2022-10-20T14:21:08.339Z,5.48
2022-10-20T14:23:37.143Z,5.45
2022-10-20T14:26:05.151Z,5.44
2022-10-20T14:28:34.841Z,5.43
2022-10-20T14:31:01.570Z,5.41
2022-10-20T14:33:29.217Z,5.39
2022-10-20T14:35:57.308Z,5.39
2022-10-20T14:38:27.709Z,5.37
2022-10-20T14:40:55.861Z,5.35
2022-10-20T14:43:31.865Z,5.34
2022-10-20T14:45:59.890Z,5.33
2022-10-20T14:48:31.583Z,5.32
2022-10-20T14:50:58.296Z,5.31
2022-10-20T14:53:29.580Z,5.31
2022-10-20T14:55:57.530Z,5.30
2022-10-20T14:58:37.694Z,5.30
2022-10-20T15:01:24.391Z,5.31
2022-10-20T15:04:24.456Z,5.30
2022-10-20T15:06:51.242Z,5.29
2022-10-20T15:09:29.633Z,5.30
2022-10-20T15:11:56.385Z,5.29
2022-10-20T15:14:23.140Z,5.28
2022-10-20T15:16:49.772Z,5.27
2022-10-20T15:19:34.928Z,5.28
2022-10-20T15:22:05.355Z,5.25
2022-10-20T15:24:32.076Z,5.29
2022-10-20T15:26:58.876Z,5.31
2022-10-20T15:29:26.406Z,5.31
2022-10-20T15:31:53.893Z,5.30
2022-10-20T15:34:20.982Z,5.30
2022-10-20T15:36:50.333Z,5.31
2022-10-20T15:39:18.038Z,5.32
2022-10-20T15:41:45.161Z,5.34
2022-10-20T15:44:14.265Z,5.37
2022-10-20T15:46:42.122Z,5.37
2022-10-20T15:49:09.372Z,5.39
2022-10-20T15:51:36.428Z,5.39
2022-10-20T15:54:03.264Z,5.37
2022-10-20T15:56:29.949Z,5.36
2022-10-20T15:58:56.802Z,5.32
2022-10-20T16:01:23.685Z,5.34
2022-10-20T16:03:50.954Z,5.31
2022-10-20T16:06:18.459Z,5.35
2022-10-20T16:08:46.654Z,5.35
2022-10-20T16:11:13.970Z,5.34
2022-10-20T16:13:40.756Z,5.34
2022-10-20T16:16:08.089Z,5.36
2022-10-20T16:18:35.228Z,5.36
2022-10-20T16:21:03.615Z,5.38
2022-10-20T16:23:30.333Z,5.40
2022-10-20T16:25:57.031Z,5.39
2022-10-20T16:28:23.768Z,5.38
2022-10-20T16:30:50.526Z,5.38
2022-10-20T16:33:17.244Z,5.39
2022-10-20T16:35:44.449Z,5.40
2022-10-20T16:38:11.275Z,5.40
2022-10-20T16:40:37.912Z,5.39
2022-10-20T16:43:04.667Z,5.38
2022-10-20T16:45:31.456Z,5.36
2022-10-20T16:47:58.234Z,5.36
2022-10-20T16:50:25.176Z,5.37
2022-10-20T16:52:52.019Z,5.36
2022-10-20T16:55:18.676Z,5.34
2022-10-20T16:57:45.497Z,5.33
2022-10-20T17:00:12.612Z,5.32
2022-10-20T17:02:42.977Z,5.29
2022-10-20T17:05:10.121Z,5.28
2022-10-20T17:07:37.091Z,5.27
2022-10-20T17:10:04.357Z,5.27
2022-10-20T17:12:31.117Z,5.24
2022-10-20T17:14:57.842Z,5.22
2022-10-20T17:17:24.811Z,5.21
2022-10-20T17:19:51.783Z,5.22
2022-10-20T17:22:18.424Z,5.22
2022-10-20T17:24:45.147Z,5.23
2022-10-20T17:27:11.952Z,5.21
2022-10-20T17:29:38.653Z,5.21
2022-10-20T17:32:05.800Z,5.20
2022-10-20T17:34:32.758Z,5.18
2022-10-20T17:36:59.701Z,5.18
2022-10-20T17:39:27.898Z,5.16
2022-10-20T17:41:54.750Z,5.12
2022-10-20T17:44:21.612Z,5.11
2022-10-20T17:46:48.456Z,5.11
2022-10-20T17:49:15.281Z,5.06
2022-10-20T17:51:44.587Z,5.06
2022-10-20T17:54:13.486Z,5.04
2022-10-20T17:56:41.480Z,5.04
2022-10-20T17:59:09.520Z,5.00
2022-10-20T18:01:38.307Z,4.97
2022-10-20T18:04:07.234Z,4.96
2022-10-20T18:06:34.815Z,4.94
2022-10-20T18:09:04.911Z,4.91
2022-10-20T18:11:34.029Z,4.88
2022-10-20T18:14:01.040Z,4.88
2022-10-20T18:16:29.276Z,4.87
2022-10-20T18:18:59.598Z,4.85
2022-10-20T18:21:27.296Z,4.83
2022-10-20T18:23:58.164Z,4.83
2022-10-20T18:26:25.188Z,4.82
2022-10-20T18:28:52.128Z,4.85
2022-10-20T18:31:23.528Z,4.85
2022-10-20T18:33:51.685Z,4.87
2022-10-20T18:36:18.905Z,4.87
2022-10-20T18:38:46.253Z,4.90
2022-10-20T18:41:18.170Z,4.92
2022-10-20T18:43:47.846Z,4.93
2022-10-20T18:46:14.941Z,4.94
2022-10-20T18:48:41.793Z,4.93
2022-10-20T18:51:10.424Z,4.92
2022-10-20T18:53:37.901Z,4.89
2022-10-20T18:56:14.942Z,4.88
2022-10-20T18:58:43.556Z,4.86
2022-10-20T19:01:12.302Z,4.84
2022-10-20T19:03:39.421Z,4.84
2022-10-20T19:06:08.652Z,4.85
2022-10-20T19:08:36.170Z,4.88
2022-10-20T19:11:03.879Z,4.91
2022-10-20T19:13:30.660Z,4.92
2022-10-20T19:15:57.758Z,4.92
2022-10-20T19:18:25.457Z,4.93
2022-10-20T19:20:55.275Z,4.94
2022-10-20T19:23:22.553Z,4.94
2022-10-20T19:26:02.027Z,4.91
2022-10-20T19:28:29.847Z,4.88
2022-10-20T19:30:56.588Z,4.86
2022-10-20T19:33:23.549Z,4.86
2022-10-20T19:35:50.551Z,4.86
2022-10-20T19:38:17.720Z,4.88
2022-10-20T19:40:44.577Z,4.91
2022-10-20T19:43:11.240Z,4.94
2022-10-20T19:45:37.974Z,4.97
2022-10-20T19:48:04.859Z,4.97
2022-10-20T19:50:31.478Z,4.95
2022-10-20T19:52:58.905Z,4.95
2022-10-20T19:55:25.770Z,4.92
2022-10-20T19:57:53.107Z,4.90
2022-10-20T20:00:19.831Z,4.87
2022-10-20T20:02:47.019Z,4.84
2022-10-20T20:05:13.823Z,4.81
2022-10-20T20:07:40.855Z,4.78
2022-10-20T20:10:07.779Z,4.73
2022-10-20T20:12:34.536Z,4.68
2022-10-20T20:15:01.260Z,4.61
2022-10-20T20:17:28.096Z,4.55
2022-10-20T20:19:54.736Z,4.49
2022-10-20T20:22:21.499Z,4.46
2022-10-20T20:24:48.216Z,4.42
2022-10-20T20:27:15.004Z,4.39
2022-10-20T20:29:41.771Z,4.39
2022-10-20T20:32:08.478Z,4.40
2022-10-20T20:34:35.183Z,4.39
2022-10-20T20:37:01.911Z,4.39
2022-10-20T20:39:28.670Z,4.36
2022-10-20T20:41:55.450Z,4.37
2022-10-20T20:46:53.873Z,4.36
2022-10-20T20:49:20.535Z,4.34
2022-10-20T20:51:47.241Z,4.31
2022-10-20T20:54:13.972Z,4.25
2022-10-20T20:59:19.983Z,4.13
2022-10-20T21:01:46.685Z,4.07
2022-10-20T21:04:13.613Z,4.06
2022-10-20T21:07:01.144Z,4.01
2022-10-20T21:09:27.722Z,3.95
2022-10-20T21:11:54.432Z,3.88
2022-10-20T21:14:21.162Z,3.84
2022-10-20T21:16:47.931Z,3.78
2022-10-20T21:19:14.565Z,3.77
2022-10-20T21:21:50.380Z,3.76
2022-10-20T21:24:17.507Z,3.75
2022-10-20T21:26:44.280Z,3.76
2022-10-20T21:29:10.975Z,3.77
2022-10-20T21:31:37.713Z,3.76
2022-10-20T21:34:04.880Z,3.78
2022-10-20T21:36:32.553Z,3.80
2022-10-20T21:38:59.411Z,3.84
2022-10-20T21:41:27.287Z,3.87
2022-10-20T21:43:55.739Z,3.87
2022-10-20T21:46:23.510Z,3.85
2022-10-20T21:48:51.409Z,3.82
2022-10-20T21:51:18.971Z,3.75
2022-10-20T21:53:45.940Z,3.73
2022-10-20T21:56:12.882Z,3.73
2022-10-20T21:58:39.726Z,3.74
2022-10-20T22:01:13.214Z,3.74
2022-10-20T22:03:40.405Z,3.72
2022-10-20T22:06:08.154Z,3.69
2022-10-20T22:08:36.154Z,3.67
2022-10-20T22:11:26.613Z,3.62
2022-10-20T22:13:53.493Z,3.56
2022-10-20T22:16:26.839Z,3.54
2022-10-20T22:18:57.674Z,3.53
2022-10-20T22:21:24.584Z,3.54
2022-10-20T22:23:54.854Z,3.57
2022-10-20T22:26:22.117Z,3.59
2022-10-20T22:28:50.818Z,3.56
2022-10-20T22:31:18.199Z,3.53
2022-10-20T22:33:45.003Z,3.47
2022-10-20T22:36:11.731Z,3.42
2022-10-20T22:38:38.534Z,3.34
2022-10-20T22:41:05.291Z,3.28
2022-10-20T22:43:31.945Z,3.27
2022-10-20T22:45:58.765Z,3.26
2022-10-20T22:48:25.369Z,3.25
2022-10-20T22:50:52.195Z,3.25
2022-10-20T22:53:18.844Z,3.24
2022-10-20T22:55:45.641Z,3.23
2022-10-20T22:58:12.436Z,3.23
2022-10-20T23:00:39.860Z,3.21
2022-10-20T23:03:06.671Z,3.18
2022-10-20T23:05:33.502Z,3.17
2022-10-20T23:08:00.218Z,3.17
2022-10-20T23:10:27.179Z,3.19
2022-10-20T23:12:53.815Z,3.21
2022-10-20T23:15:20.625Z,3.23
2022-10-20T23:17:47.565Z,3.22
2022-10-20T23:20:14.383Z,3.16
2022-10-20T23:22:41.014Z,3.10
2022-10-20T23:25:08.335Z,3.10
2022-10-20T23:27:35.433Z,3.11
2022-10-20T23:30:02.641Z,3.14
2022-10-20T23:32:29.308Z,3.14
2022-10-20T23:34:56.151Z,3.12
2022-10-20T23:37:23.749Z,3.08
2022-10-20T23:39:50.622Z,3.08
2022-10-20T23:42:17.343Z,3.09
2022-10-20T23:44:44.110Z,3.10
2022-10-20T23:47:10.833Z,3.11
2022-10-20T23:49:37.624Z,3.10
2022-10-20T23:52:04.450Z,3.10
2022-10-20T23:54:31.114Z,3.09
2022-10-20T23:56:57.928Z,3.06
2022-10-20T23:59:24.530Z,2.99
